METAR UND TAF INFORMATION

METAR FOR EBCI
ADDS - METARS form results

(0109 UTC 26 June 2022)
Data provider http://aviationweather.gov/metar/data/
 
METAR text: EBCI 260050Z 21007KT 9999 FEW005 SCT008 13/12 Q1014 NOSIG
Conditions at: EBCI (CHARLEROI/GOSSEL, BE) observed 0050 UTC 26 June 2022
Temperature: 13.0°C (55°F)
Dewpoint: 12.0°C (54°F) [RH = 94%]
Pressure (altimeter): 29.94 inches Hg (1014.0 mb)
Winds: from the SSW (210 degrees) at 8 MPH (7 knots; 3.6 m/s)
Visibility: 6 or more miles (10+ km)
Ceiling: at least 12,000 feet AGL
Clouds: few clouds at 500 feet AGL
scattered clouds at 800 feet AGL
Weather: no significant weather observed at this time

METAR text: EBCI 260020Z 21007KT 9999 SCT005 BKN008 13/13 Q1014 NOSIG
Conditions at: EBCI (CHARLEROI/GOSSEL, BE) observed 0020 UTC 26 June 2022
Temperature: 13.0°C (55°F)
Dewpoint: 13.0°C (55°F) [RH = 100%]
Pressure (altimeter): 29.94 inches Hg (1014.0 mb)
Winds: from the SSW (210 degrees) at 8 MPH (7 knots; 3.6 m/s)
Visibility: 6 or more miles (10+ km)
Ceiling: 800 feet AGL
Clouds: scattered clouds at 500 feet AGL
broken clouds at 800 feet AGL
Weather: no significant weather observed at this time

Forecast for: EBCI (CHARLEROI/GOSSEL, BE)
Text: TAF EBCI 252307Z 2600/2706 20005KT 9999 SCT040
Forecast period: 0000 UTC 26 June 2022 to 0600 UTC 27 June 2022
Forecast type: FROM: standard forecast or significant change
Winds: from the SSW (200 degrees) at 6 MPH (5 knots; 2.6 m/s)
Visibility: 6 or more miles (10+ km)
Ceiling: at least 12,000 feet AGL
Clouds: scattered clouds at 4000 feet AGL
Weather: no significant weather forecast for this period
Text: PROB30
Forecast period: 0000 to 0600 UTC 26 June 2022
Forecast type: TEMPORARY: The following changes expected for less than half the time period
Visibility: 1.86 miles (2.99 km)
Ceiling: 300 feet AGL
Clouds: broken clouds at 300 feet AGL
Weather: BR  (mist)

 FLUGHAFENKARTE

 RUNWAY INFORMATION
Runway 07 Runway length 8366 ft Runway width 148 ft
Runway elevation 611 ft Runway displaced threshold 1477 ft Runway heading 66
Runway 25 Runway length 8366 ft Runway width 148 ft
Runway elevation 583 ft Runway displaced threshold 0 ft Runway heading 246

 AIRPORT FREQUENCIES
Type APP Name CHARLEROI Frequency 133.125 MHZ
Type ATIS Name ATIS Frequency 134.625 MHZ
Type GND Name CHARLEROI Frequency 121.8 MHZ
Type TWR Name CHARLEROI Frequency 121.3 MHZ

 AIRPORT NEAR NAVIGATION AIDS
Type VOR-DME Name Gosly Frequency 115700 KHZ
Type NDB Name Charleroi Frequency 323 KHZ